VANAF 15-08-2015 LEVERT WEERSTATION LUYKSGESTEL OOK ACTUELE DATA AAN HETWEERACTUEEL
Het weer levert geen direct gevaar op.    Er zijn geen waarschuwingen afgegeven.


Onweer radar Meer informatie blitzortung!


Regen radar Meer informatie rain snow radar


Bekijk deze sites ook eens:

FPL Automotive (TIP)

Autostekkers.nl (TIP)

Over Luyksgestel

BOL.com

Weerstation Noordbergum

Inktweb

Drone kopen?

Weerstation Hapert

Parfumswinkel TIP

Weerstation Hoogeloon

Dronepilots Droneforum

Beleef de Lente

Weerstation Son&Breugel

Weerstation Castaert

Kamera Express

Smartphonehoesjes

Weerstation Tilburg Reeshof

Weerstation Scheulder

Samostour webcams

Weerverwachting Samos

Samos actueel

Weerwoord (forum)

Griekenlandforum

Vakantie naar Samos

Benelux-weerman

Zomerzon

Lampen koopjeshoek



METAR rapporten vliegvelden

   
EBAW - Antwerp
Gewijzigd: 20-08-2018 09:20
Bewolking  
Bewolking  
   Wind: Westen 9.3 km/h
Wind: Westen 9.3 km/h
Temperatuur: 20°C
Dauwpunt: 18°C
Vochtigheid: 88%
Barometer: 1020 hPa
Bewolking: Bewolking
Zicht: 6 km
Bewolking: Bewolking 1000 ft
EBAW 200720Z 26005KT 6000 OVC010 20/18 Q1020 TEMPO 3000 BR BKN006
EBLG - Liège
Gewijzigd: 20-08-2018 09:20
Lichte (mot)regen, Nevel, Grotendeels bewolkt  
Lichte (mot)regen, Nevel, Grotendeels bewolkt  
   Wind: ZW 7.4 km/h
Wind: ZW 7.4 km/h
Temperatuur: 18°C
Dauwpunt: 17°C
Vochtigheid: 94%
Bewolking: Grotendeels bewolkt
Zicht: 4 km
Bewolking: Gedeeltelijk bewolkt 300 ft,
Grotendeels bewolkt 500 ft
EBLG 200720Z 23004KT 3900 -DZ BR SCT003 BKN005 18/17 Q
EBCV - Mons/Bergen
Gewijzigd: 20-08-2018 08:55
Bewolking  
Bewolking  
   Wind: WZW 7.4 km/h
Wind: WZW 7.4 km/h
Temperatuur: 19°C
Dauwpunt: 17°C
Vochtigheid: 88%
Barometer: 1020 hPa
Bewolking: Bewolking
Zicht: meer dan 10 km
Bewolking: Bewolking 900 ft
EBCV 200655Z AUTO 25004KT 9999 OVC009/// 19/17 Q1020 GRN
EHBK - Maastricht
Gewijzigd: 20-08-2018 08:55
Bewolking  
Bewolking  
   Wind: ZW 14.8 km/h
Wind: ZW 14.8 km/h
Temperatuur: 19°C
Dauwpunt: 17°C
Vochtigheid: 88%
Barometer: 1019 hPa
Bewolking: Bewolking
Zicht: meer dan 10 km
Bewolking: Bewolking 800 ft
EHBK 200655Z AUTO 23008KT 200V270 9999 OVC008 19/17 Q1019 NOSIG
ELLX - Luxemburg
Gewijzigd: 20-08-2018 09:20
Bewolking  
Bewolking  
   Wind: NNW 7.4 km/h
Wind: NNW 7.4 km/h
Temperatuur: 17°C
Dauwpunt: 15°C
Vochtigheid: 88%
Barometer: 1021 hPa
Bewolking: Bewolking
Zicht: meer dan 10 km
Bewolking: Bewolking 600 ft
ELLX 200720Z 33004KT 280V020 9999 OVC006 17/15 Q1021 NOSIG
EBOS - Oostende
Gewijzigd: 20-08-2018 09:20
Grotendeels bewolkt  
Grotendeels bewolkt  
   Wind: NNW 9.3 km/h
Wind: NNW 9.3 km/h
Temperatuur: 20°C
Dauwpunt: 16°C
Vochtigheid: 78%
Barometer: 1020 hPa
Bewolking: Grotendeels bewolkt
Zicht: meer dan 10 km
Bewolking: Licht bewolkt 1800 ft,
Grotendeels bewolkt 4800 ft
EBOS 200720Z 34005KT 9999 FEW018 BKN048 20/16 Q1020 NOSIG

Script ontwikkeld door  Saratoga-weather.org Aangepast voor de template door  Weerstation Leuven

U vindt ons ook hier:

Het Weer Aktueel

UK Metoffice

European Weather Network

Weather Underground

AWEKAS